createdAt,value
2018-07-27T00:01:31.224Z,64.60
2018-07-27T00:03:58.139Z,64.60
2018-07-27T00:06:25.064Z,64.50
2018-07-27T00:08:51.930Z,65.10
2018-07-27T00:11:18.795Z,64.80
2018-07-27T00:13:45.736Z,65.30
2018-07-27T00:16:12.607Z,65.20
2018-07-27T00:18:39.525Z,65.60
2018-07-27T00:21:06.691Z,66.10
2018-07-27T00:23:33.883Z,66.00
2018-07-27T00:26:00.747Z,66.20
2018-07-27T00:28:27.647Z,66.30
2018-07-27T00:30:54.516Z,66.40
2018-07-27T00:33:21.430Z,66.60
2018-07-27T00:35:48.343Z,66.90
2018-07-27T00:38:15.219Z,67.10
2018-07-27T00:40:42.189Z,66.90
2018-07-27T00:43:09.108Z,67.40
2018-07-27T00:45:35.979Z,67.20
2018-07-27T00:48:03.003Z,67.20
2018-07-27T00:50:29.870Z,67.10
2018-07-27T00:52:56.787Z,67.10
2018-07-27T00:55:23.659Z,67.70
2018-07-27T00:57:50.579Z,67.90
2018-07-27T01:00:17.504Z,68.80
2018-07-27T01:02:45.404Z,69.00
2018-07-27T01:05:12.661Z,69.30
2018-07-27T01:07:40.496Z,69.40
2018-07-27T01:10:07.427Z,70.00
2018-07-27T01:12:34.292Z,70.30
2018-07-27T01:15:01.196Z,70.30
2018-07-27T01:17:28.063Z,71.30
2018-07-27T01:19:54.955Z,71.10
2018-07-27T01:22:21.874Z,71.60
2018-07-27T01:24:48.732Z,71.50
2018-07-27T01:27:15.599Z,72.20
2018-07-27T01:29:42.512Z,72.60
2018-07-27T01:32:09.430Z,72.80
2018-07-27T01:34:36.292Z,73.20
2018-07-27T01:37:03.147Z,73.60
2018-07-27T01:39:30.044Z,74.00
2018-07-27T01:41:56.955Z,74.70
2018-07-27T01:44:23.856Z,75.00
2018-07-27T01:46:50.723Z,75.40
2018-07-27T01:49:17.681Z,75.80
2018-07-27T01:51:44.549Z,76.50
2018-07-27T01:54:11.500Z,76.80
2018-07-27T01:59:05.418Z,78.20
2018-07-27T02:01:32.688Z,78.60
2018-07-27T02:03:59.592Z,79.60
2018-07-27T02:06:26.488Z,80.00
2018-07-27T02:08:53.396Z,80.70
2018-07-27T02:11:20.346Z,81.80
2018-07-27T02:13:47.211Z,81.80
2018-07-27T02:16:14.542Z,82.30
2018-07-27T02:18:41.419Z,82.70
2018-07-27T02:21:08.460Z,83.90
2018-07-27T02:23:35.405Z,84.30
2018-07-27T02:26:02.456Z,85.10
2018-07-27T02:28:29.391Z,85.30
2018-07-27T02:30:56.309Z,85.80
2018-07-27T02:33:23.177Z,86.70
2018-07-27T02:35:50.096Z,87.10
2018-07-27T02:38:17.324Z,87.60
2018-07-27T02:40:44.245Z,88.10
2018-07-27T02:43:11.157Z,88.90
2018-07-27T02:45:38.063Z,89.20
2018-07-27T02:48:05.220Z,89.80
2018-07-27T02:50:32.131Z,90.20
2018-07-27T02:52:59.048Z,90.40
2018-07-27T02:55:25.979Z,90.70
2018-07-27T02:57:52.848Z,91.10
2018-07-27T03:00:19.786Z,91.30
2018-07-27T03:02:46.661Z,91.70
2018-07-27T03:05:13.531Z,91.90
2018-07-27T03:07:40.500Z,92.20
2018-07-27T03:10:07.471Z,92.30
2018-07-27T03:12:34.347Z,92.40
2018-07-27T03:15:01.275Z,92.90
2018-07-27T03:17:28.163Z,93.00
2018-07-27T03:19:55.083Z,93.20
2018-07-27T03:22:21.943Z,93.30
2018-07-27T03:24:48.996Z,93.50
2018-07-27T03:27:15.909Z,93.70
2018-07-27T03:29:42.783Z,93.90
2018-07-27T03:32:09.652Z,93.90
2018-07-27T03:34:36.556Z,94.10
2018-07-27T03:37:03.579Z,94.60
2018-07-27T03:39:30.489Z,94.50
2018-07-27T03:41:57.352Z,94.40
2018-07-27T03:44:24.318Z,94.50
2018-07-27T03:46:51.196Z,94.80
2018-07-27T03:49:18.116Z,94.90
2018-07-27T03:51:45.031Z,95.30
2018-07-27T03:54:11.952Z,95.60
2018-07-27T03:59:05.725Z,95.70
2018-07-27T04:01:32.676Z,95.90
2018-07-27T04:03:59.600Z,95.90
2018-07-27T04:06:26.708Z,95.90
2018-07-27T04:08:53.626Z,95.90
2018-07-27T04:11:20.544Z,96.30
2018-07-27T04:13:47.458Z,96.00
2018-07-27T04:16:14.370Z,96.30
2018-07-27T04:18:41.311Z,96.40
2018-07-27T04:21:08.188Z,96.40
2018-07-27T04:23:35.059Z,96.60
2018-07-27T04:26:01.980Z,96.70
2018-07-27T04:28:28.848Z,96.70
2018-07-27T04:30:55.719Z,96.70
2018-07-27T04:33:22.641Z,97.00
2018-07-27T04:35:49.532Z,97.10
2018-07-27T04:38:16.467Z,97.00
2018-07-27T04:40:43.343Z,97.10
2018-07-27T04:43:10.255Z,97.10
2018-07-27T04:45:37.335Z,97.30
2018-07-27T04:48:04.228Z,97.40
2018-07-27T04:50:31.102Z,97.70
2018-07-27T04:52:58.015Z,97.80
2018-07-27T04:55:24.884Z,97.50
2018-07-27T04:57:51.800Z,97.40
2018-07-27T05:00:18.702Z,97.60
2018-07-27T05:02:45.628Z,97.40
2018-07-27T05:05:12.495Z,97.40
2018-07-27T05:07:39.403Z,97.30
2018-07-27T05:10:12.095Z,97.00
2018-07-27T05:12:39.064Z,96.80
2018-07-27T05:15:05.936Z,96.80
2018-07-27T05:17:32.803Z,96.50
2018-07-27T05:19:59.723Z,96.10
2018-07-27T05:22:26.592Z,95.90
2018-07-27T05:24:53.716Z,95.90
2018-07-27T05:27:20.592Z,95.40
2018-07-27T05:29:47.511Z,95.30
2018-07-27T05:32:14.387Z,95.00
2018-07-27T05:34:41.252Z,94.70
2018-07-27T05:37:08.172Z,94.20
2018-07-27T05:39:35.085Z,93.80
2018-07-27T05:42:01.955Z,93.40
2018-07-27T05:44:28.867Z,93.10
2018-07-27T05:46:55.843Z,92.80
2018-07-27T05:49:22.723Z,92.10
2018-07-27T05:51:49.593Z,91.70
2018-07-27T05:54:16.512Z,91.60
2018-07-27T05:56:43.432Z,90.90
2018-07-27T05:59:10.311Z,90.60
2018-07-27T06:01:37.180Z,90.10
2018-07-27T06:04:04.344Z,89.20
2018-07-27T06:06:31.225Z,88.60
2018-07-27T06:08:58.141Z,88.30
2018-07-27T06:11:25.018Z,87.90
2018-07-27T06:13:52.081Z,86.50
2018-07-27T06:16:18.991Z,85.60
2018-07-27T06:21:13.072Z,82.80
2018-07-27T06:23:39.971Z,81.40
2018-07-27T06:26:06.842Z,79.50
2018-07-27T06:28:33.754Z,77.70
2018-07-27T06:31:00.667Z,76.00
2018-07-27T06:33:27.691Z,74.30
2018-07-27T06:35:54.557Z,72.40
2018-07-27T06:38:21.471Z,70.60
2018-07-27T06:40:48.336Z,69.70
2018-07-27T06:43:15.235Z,69.80
2018-07-27T06:45:42.178Z,68.40
2018-07-27T06:48:14.892Z,66.00
2018-07-27T06:50:41.802Z,64.40
2018-07-27T06:53:08.719Z,62.80
2018-07-27T06:55:35.587Z,63.70
2018-07-27T06:58:02.512Z,64.30
2018-07-27T07:00:29.382Z,64.70
2018-07-27T07:02:56.287Z,64.30
2018-07-27T07:05:23.154Z,62.40
2018-07-27T07:07:50.088Z,60.40
2018-07-27T07:10:16.999Z,59.50
2018-07-27T07:12:43.912Z,58.50
2018-07-27T07:15:10.841Z,57.40
2018-07-27T07:17:37.779Z,56.90
2018-07-27T07:20:05.333Z,56.70
2018-07-27T07:22:32.240Z,55.10
2018-07-27T07:24:59.337Z,53.90
2018-07-27T07:27:26.544Z,54.40
2018-07-27T07:29:53.451Z,53.50
2018-07-27T07:32:20.390Z,52.50
2018-07-27T07:34:47.259Z,51.00
2018-07-27T07:37:14.435Z,50.20
2018-07-27T07:39:41.352Z,49.40
2018-07-27T07:42:08.220Z,48.80
2018-07-27T07:44:35.147Z,48.50
2018-07-27T07:47:02.378Z,47.90
2018-07-27T07:49:29.262Z,47.80
2018-07-27T07:54:23.051Z,46.60
2018-07-27T07:56:49.969Z,46.50
2018-07-27T07:59:16.972Z,47.60
2018-07-27T08:01:43.878Z,46.60
2018-07-27T08:04:11.012Z,45.70
2018-07-27T08:06:37.956Z,45.40
2018-07-27T08:09:06.403Z,45.60
2018-07-27T08:11:33.327Z,45.20
2018-07-27T08:14:00.428Z,46.50
2018-07-27T08:16:27.351Z,46.30
2018-07-27T08:18:54.276Z,44.90
2018-07-27T08:21:21.463Z,44.50
2018-07-27T08:23:48.335Z,44.50
2018-07-27T08:26:47.540Z,43.60
2018-07-27T08:29:15.727Z,43.90
2018-07-27T08:31:43.782Z,42.90
2018-07-27T08:34:11.252Z,42.90
2018-07-27T08:36:38.167Z,43.20
2018-07-27T08:39:07.296Z,43.20
2018-07-27T08:44:01.596Z,42.40
2018-07-27T08:46:28.508Z,42.70
2018-07-27T08:48:56.283Z,43.40
2018-07-27T08:51:23.190Z,41.80
2018-07-27T08:53:50.065Z,42.10
2018-07-27T08:56:17.321Z,41.70
2018-07-27T08:58:44.183Z,41.80
2018-07-27T09:01:11.091Z,41.50
2018-07-27T09:03:37.951Z,42.00
2018-07-27T09:06:05.040Z,41.10
2018-07-27T09:08:31.910Z,40.60
2018-07-27T09:10:58.784Z,40.30
2018-07-27T09:13:26.057Z,40.10
2018-07-27T09:15:53.462Z,40.80
2018-07-27T09:18:20.497Z,40.20
2018-07-27T09:20:47.353Z,39.50
2018-07-27T09:23:14.276Z,39.50
2018-07-27T09:25:41.152Z,39.50
2018-07-27T09:28:08.048Z,39.50
2018-07-27T09:33:01.836Z,38.70
2018-07-27T09:35:28.756Z,38.50
2018-07-27T09:37:55.643Z,38.70
2018-07-27T09:40:22.633Z,38.10
2018-07-27T09:42:49.508Z,38.20
2018-07-27T09:47:43.312Z,37.30
2018-07-27T09:50:10.219Z,36.90
2018-07-27T09:52:37.376Z,36.80
2018-07-27T09:55:04.318Z,37.30
2018-07-27T09:57:31.208Z,36.60
2018-07-27T09:59:58.327Z,36.10
2018-07-27T10:02:25.239Z,35.90
2018-07-27T10:04:52.145Z,36.20
2018-07-27T10:07:19.059Z,35.40
2018-07-27T10:09:45.971Z,35.00
2018-07-27T10:12:12.848Z,35.90
2018-07-27T10:14:39.763Z,35.30
2018-07-27T10:17:06.635Z,35.00
2018-07-27T10:19:33.560Z,35.50
2018-07-27T10:22:00.436Z,35.80
2018-07-27T10:24:27.315Z,35.50
2018-07-27T10:26:54.240Z,35.10
2018-07-27T10:29:21.117Z,35.00
2018-07-27T10:31:47.976Z,33.90
2018-07-27T10:34:14.894Z,33.90
2018-07-27T10:36:41.768Z,33.80
2018-07-27T10:39:10.076Z,33.20
2018-07-27T10:41:36.991Z,33.70
2018-07-27T10:44:03.864Z,35.30
2018-07-27T10:46:30.779Z,35.20
2018-07-27T10:48:57.670Z,34.70
2018-07-27T10:51:24.580Z,33.60
2018-07-27T10:53:51.439Z,33.80
2018-07-27T10:56:18.355Z,34.10
2018-07-27T10:58:45.231Z,34.30
2018-07-27T11:01:12.147Z,33.40
2018-07-27T11:03:39.056Z,32.70
2018-07-27T11:06:05.950Z,32.20
2018-07-27T11:08:32.815Z,33.10
2018-07-27T11:10:59.728Z,32.90
2018-07-27T11:13:26.591Z,34.00
2018-07-27T11:15:53.499Z,33.70
2018-07-27T11:18:20.368Z,34.30
2018-07-27T11:20:47.270Z,34.50
2018-07-27T11:23:14.176Z,35.00
2018-07-27T11:25:41.107Z,34.10
2018-07-27T11:28:07.995Z,33.40
2018-07-27T11:30:34.904Z,32.90
2018-07-27T11:33:01.825Z,32.60
2018-07-27T11:35:28.704Z,31.40
2018-07-27T11:37:55.664Z,32.90
2018-07-27T11:40:22.577Z,34.50
2018-07-27T11:42:49.444Z,35.70
2018-07-27T11:47:43.272Z,34.80
2018-07-27T11:50:10.184Z,34.40
2018-07-27T11:52:37.051Z,34.90
2018-07-27T11:55:04.437Z,35.20
2018-07-27T11:57:31.358Z,35.80
2018-07-27T11:59:58.214Z,36.60
2018-07-27T12:02:25.084Z,36.80
2018-07-27T12:04:52.004Z,37.80
2018-07-27T12:07:18.867Z,38.90
2018-07-27T12:09:45.735Z,40.00
2018-07-27T12:12:12.655Z,40.70
2018-07-27T12:14:39.772Z,40.60
2018-07-27T12:17:06.507Z,40.30
2018-07-27T12:19:34.311Z,40.50
2018-07-27T12:22:01.225Z,39.30
2018-07-27T12:24:28.143Z,37.60
2018-07-27T12:26:55.024Z,37.40
2018-07-27T12:29:21.937Z,38.30
2018-07-27T12:31:48.827Z,38.60
2018-07-27T12:34:15.731Z,38.00
2018-07-27T12:36:42.596Z,37.00
2018-07-27T12:39:10.624Z,35.50
2018-07-27T12:41:38.323Z,35.50
2018-07-27T12:44:05.232Z,35.30
2018-07-27T12:46:32.155Z,35.00
2018-07-27T12:48:59.015Z,34.90
2018-07-27T12:53:52.889Z,34.60
2018-07-27T12:56:19.791Z,34.00
2018-07-27T12:58:46.659Z,33.20
2018-07-27T13:01:13.571Z,32.20
2018-07-27T13:03:40.472Z,31.50
2018-07-27T13:06:07.343Z,32.40
2018-07-27T13:08:34.356Z,32.40
2018-07-27T13:11:01.273Z,32.10
2018-07-27T13:13:28.247Z,33.40
2018-07-27T13:15:55.156Z,34.40
2018-07-27T13:18:22.015Z,35.50
2018-07-27T13:20:56.477Z,36.60
2018-07-27T13:23:23.971Z,37.70
2018-07-27T13:28:28.736Z,39.00
2018-07-27T13:30:55.767Z,38.90
2018-07-27T13:33:22.679Z,39.60
2018-07-27T13:35:49.550Z,39.60
2018-07-27T13:38:16.459Z,38.60
2018-07-27T13:43:10.263Z,42.60
2018-07-27T13:45:37.130Z,46.70
2018-07-27T13:48:04.065Z,51.90
2018-07-27T13:50:30.931Z,52.60
2018-07-27T13:52:57.848Z,53.30
2018-07-27T13:55:24.776Z,55.30
2018-07-27T14:00:18.498Z,54.70
2018-07-27T14:02:45.388Z,58.10
2018-07-27T14:05:12.308Z,59.30
2018-07-27T14:07:39.220Z,59.70
2018-07-27T14:10:06.072Z,60.80
2018-07-27T14:12:33.029Z,63.40
2018-07-27T14:14:59.920Z,61.90
2018-07-27T14:17:26.779Z,62.60
2018-07-27T14:19:53.691Z,62.40
2018-07-27T14:22:20.563Z,61.70
2018-07-27T14:24:47.475Z,62.40
2018-07-27T14:27:14.351Z,62.80
2018-07-27T14:29:41.263Z,62.60
2018-07-27T14:32:08.135Z,63.10
2018-07-27T14:34:35.055Z,63.60
2018-07-27T14:37:02.253Z,63.00
2018-07-27T14:41:56.016Z,59.20
2018-07-27T14:44:22.912Z,56.40
2018-07-27T14:46:49.831Z,53.60
2018-07-27T14:49:16.810Z,54.50
2018-07-27T14:51:43.989Z,53.50
2018-07-27T14:54:12.007Z,51.10
2018-07-27T14:56:39.637Z,49.80
2018-07-27T14:59:06.720Z,48.40
2018-07-27T15:01:33.592Z,48.40
2018-07-27T15:04:00.539Z,46.80
2018-07-27T15:06:27.408Z,44.00
2018-07-27T15:08:54.332Z,44.60
2018-07-27T15:11:21.232Z,42.90
2018-07-27T15:13:48.144Z,44.50
2018-07-27T15:16:15.045Z,44.70
2018-07-27T15:18:41.966Z,44.20
2018-07-27T15:21:08.839Z,43.70
2018-07-27T15:23:35.750Z,43.30
2018-07-27T15:26:02.622Z,43.60
2018-07-27T15:28:29.495Z,43.60
2018-07-27T15:30:56.419Z,43.00
2018-07-27T15:33:23.362Z,41.70
2018-07-27T15:35:50.245Z,42.20
2018-07-27T15:38:17.147Z,41.50
2018-07-27T15:40:44.068Z,40.90
2018-07-27T15:43:10.979Z,41.30
2018-07-27T15:45:37.904Z,41.50
2018-07-27T15:48:04.807Z,41.40
2018-07-27T15:50:31.722Z,41.30
2018-07-27T15:52:59.467Z,40.50
2018-07-27T15:55:26.378Z,41.40
2018-07-27T15:57:53.300Z,41.30
2018-07-27T16:00:20.215Z,40.70
2018-07-27T16:02:47.115Z,41.00
2018-07-27T16:05:14.044Z,40.40
2018-07-27T16:07:41.149Z,40.90
2018-07-27T16:10:08.020Z,40.40
2018-07-27T16:12:35.031Z,40.70
2018-07-27T16:15:01.947Z,41.60
2018-07-27T16:17:28.845Z,40.10
2018-07-27T16:19:55.761Z,40.60
2018-07-27T16:22:22.700Z,40.70
2018-07-27T16:24:49.832Z,40.70
2018-07-27T16:27:16.755Z,40.80
2018-07-27T16:29:43.636Z,41.60
2018-07-27T16:32:10.566Z,42.40
2018-07-27T16:34:37.705Z,42.40
2018-07-27T16:37:04.624Z,43.20
2018-07-27T16:39:31.538Z,44.50
2018-07-27T16:41:58.451Z,44.40
2018-07-27T16:44:25.375Z,44.60
2018-07-27T16:46:52.247Z,44.80
2018-07-27T16:49:19.119Z,44.90
2018-07-27T16:51:46.052Z,45.30
2018-07-27T16:54:12.932Z,45.90
2018-07-27T16:56:39.940Z,45.90
2018-07-27T16:59:07.084Z,45.80
2018-07-27T17:01:34.251Z,45.80
2018-07-27T17:04:01.179Z,46.30
2018-07-27T17:06:28.099Z,46.20
2018-07-27T17:08:54.984Z,47.30
2018-07-27T17:11:21.894Z,50.40
2018-07-27T17:13:48.759Z,51.90
2018-07-27T17:16:15.881Z,52.50
2018-07-27T17:18:42.804Z,53.50
2018-07-27T17:21:09.687Z,54.40
2018-07-27T17:23:36.633Z,54.90
2018-07-27T17:26:03.803Z,55.40
2018-07-27T17:28:30.711Z,55.90
2018-07-27T17:30:57.647Z,56.40
2018-07-27T17:33:24.511Z,56.80
2018-07-27T17:35:51.415Z,57.20
2018-07-27T17:38:18.279Z,57.50
2018-07-27T17:40:45.191Z,58.30
2018-07-27T17:43:12.058Z,58.90
2018-07-27T17:45:38.963Z,59.20
2018-07-27T17:48:05.887Z,59.40
2018-07-27T17:50:32.803Z,59.40
2018-07-27T17:53:00.219Z,59.30
2018-07-27T17:55:27.180Z,59.60
2018-07-27T17:57:54.664Z,60.00
2018-07-27T18:00:21.535Z,60.10
2018-07-27T18:02:48.446Z,60.30
2018-07-27T18:05:15.318Z,60.70
2018-07-27T18:07:42.278Z,61.20
2018-07-27T18:10:09.123Z,62.10
2018-07-27T18:12:36.043Z,64.90
2018-07-27T18:15:03.023Z,67.20
2018-07-27T18:17:29.920Z,71.20
2018-07-27T18:19:56.800Z,70.50
2018-07-27T18:22:23.991Z,71.40
2018-07-27T18:27:17.739Z,72.50
2018-07-27T18:29:44.654Z,72.80
2018-07-27T18:32:11.556Z,73.30
2018-07-27T18:37:05.344Z,74.90
2018-07-27T18:39:32.310Z,75.50
2018-07-27T18:41:59.207Z,76.10
2018-07-27T18:44:26.084Z,75.90
2018-07-27T18:46:53.004Z,76.20
2018-07-27T18:49:19.875Z,77.10
2018-07-27T18:51:46.795Z,77.80
2018-07-27T18:54:13.716Z,78.10
2018-07-27T18:56:40.604Z,79.20
2018-07-27T18:59:07.540Z,80.00
2018-07-27T19:01:34.449Z,79.80
2018-07-27T19:04:01.419Z,80.20
2018-07-27T19:06:28.351Z,80.50
2018-07-27T19:08:55.467Z,80.90
2018-07-27T19:11:22.826Z,81.80
2018-07-27T19:13:49.759Z,81.90
2018-07-27T19:16:16.645Z,82.50
2018-07-27T19:18:43.507Z,83.30
2018-07-27T19:21:10.467Z,85.20
2018-07-27T19:23:37.526Z,85.90
2018-07-27T19:26:04.440Z,87.30
2018-07-27T19:28:31.689Z,88.30
2018-07-27T19:30:58.607Z,89.70
2018-07-27T19:33:25.540Z,90.60
2018-07-27T19:35:52.472Z,91.20
2018-07-27T19:38:20.831Z,92.10
2018-07-27T19:40:47.699Z,92.90
2018-07-27T19:43:14.603Z,93.60
2018-07-27T19:45:42.299Z,94.40
2018-07-27T19:48:09.420Z,95.00
2018-07-27T19:50:36.295Z,95.60
2018-07-27T19:53:03.180Z,96.10
2018-07-27T19:55:30.084Z,96.50
2018-07-27T19:57:56.963Z,96.80
2018-07-27T20:00:23.878Z,97.10
2018-07-27T20:02:50.743Z,97.20
2018-07-27T20:05:17.671Z,97.60
2018-07-27T20:07:44.540Z,97.70
2018-07-27T20:10:11.449Z,98.10
2018-07-27T20:12:38.564Z,98.40
2018-07-27T20:15:05.759Z,98.60
2018-07-27T20:17:32.814Z,98.90
2018-07-27T20:19:59.681Z,99.30
2018-07-27T20:22:26.704Z,99.20
2018-07-27T20:24:53.645Z,99.50
2018-07-27T20:27:20.560Z,99.80
2018-07-27T20:29:47.427Z,99.90
2018-07-27T20:32:14.339Z,99.90
2018-07-27T20:34:41.269Z,99.90
2018-07-27T20:37:08.136Z,99.90
2018-07-27T20:39:35.011Z,99.90
2018-07-27T20:42:01.920Z,99.90
2018-07-27T20:44:28.796Z,99.90
2018-07-27T20:46:55.711Z,99.90
2018-07-27T20:49:22.583Z,99.90
2018-07-27T20:51:49.647Z,99.90
2018-07-27T20:54:16.518Z,99.90
2018-07-27T20:56:43.384Z,99.90
2018-07-27T20:59:10.539Z,99.90
2018-07-27T21:01:37.416Z,99.90
2018-07-27T21:04:04.419Z,99.90
2018-07-27T21:06:31.280Z,99.90
2018-07-27T21:08:58.150Z,99.90
2018-07-27T21:11:25.068Z,99.90
2018-07-27T21:13:51.988Z,99.90
2018-07-27T21:16:19.091Z,99.90
2018-07-27T21:18:46.004Z,99.90
2018-07-27T21:21:12.874Z,99.90
2018-07-27T21:23:39.823Z,99.90
2018-07-27T21:26:06.743Z,99.90
2018-07-27T21:28:33.612Z,99.90
2018-07-27T21:31:00.865Z,99.90
2018-07-27T21:33:27.763Z,99.90
2018-07-27T21:35:54.687Z,99.90
2018-07-27T21:38:21.550Z,99.90
2018-07-27T21:40:48.424Z,99.90
2018-07-27T21:43:15.371Z,99.90
2018-07-27T21:45:42.263Z,99.90
2018-07-27T21:48:09.339Z,99.90
2018-07-27T21:50:36.199Z,99.90
2018-07-27T21:53:03.070Z,99.90
2018-07-27T21:55:30.979Z,99.90
2018-07-27T21:57:57.925Z,99.90
2018-07-27T22:00:24.796Z,99.90
2018-07-27T22:02:51.736Z,99.90
2018-07-27T22:05:18.599Z,99.90
2018-07-27T22:07:45.503Z,99.90
2018-07-27T22:10:12.398Z,99.90
2018-07-27T22:12:39.319Z,99.90
2018-07-27T22:15:10.815Z,99.90
2018-07-27T22:17:37.951Z,99.90
2018-07-27T22:20:04.922Z,99.90
2018-07-27T22:22:31.787Z,99.90
2018-07-27T22:24:58.763Z,99.90
2018-07-27T22:27:25.960Z,99.90
2018-07-27T22:29:52.823Z,99.90
2018-07-27T22:32:19.755Z,99.90
2018-07-27T22:34:46.636Z,99.90
2018-07-27T22:37:13.540Z,99.90
2018-07-27T22:39:40.415Z,99.90
2018-07-27T22:42:07.303Z,99.90
2018-07-27T22:44:34.184Z,99.90
2018-07-27T22:47:01.091Z,99.90
2018-07-27T22:49:27.961Z,99.90
2018-07-27T22:51:54.884Z,99.90
2018-07-27T22:54:21.759Z,99.90
2018-07-27T22:56:48.647Z,99.90
2018-07-27T22:59:15.519Z,99.90
2018-07-27T23:01:42.407Z,99.90
2018-07-27T23:04:09.281Z,99.90
2018-07-27T23:06:36.179Z,99.90
2018-07-27T23:09:05.119Z,99.90
2018-07-27T23:11:32.012Z,99.90
2018-07-27T23:13:58.879Z,99.90
2018-07-27T23:16:25.793Z,99.90
2018-07-27T23:18:52.663Z,99.90
2018-07-27T23:21:19.559Z,99.90
2018-07-27T23:23:46.439Z,99.90
2018-07-27T23:26:13.323Z,99.90
2018-07-27T23:28:40.189Z,99.90
2018-07-27T23:31:07.056Z,99.90
2018-07-27T23:33:33.942Z,99.90
2018-07-27T23:36:00.808Z,99.90
2018-07-27T23:38:27.996Z,99.90
2018-07-27T23:40:54.891Z,99.90
2018-07-27T23:43:21.847Z,99.90
2018-07-27T23:45:48.711Z,99.90
2018-07-27T23:48:15.651Z,99.90
2018-07-27T23:50:42.521Z,99.90
2018-07-27T23:53:09.415Z,99.90
2018-07-27T23:55:36.280Z,99.90
2018-07-27T23:58:03.177Z,99.90
